sensor_id;sensor_type;location;lat;lon;timestamp;P1;durP1;ratioP1;P2;durP2;ratioP2
11535;SDS011;5824;49.336;8.652;2022-12-07T00:01:05;12.17;;;6.60;;
11535;SDS011;5824;49.336;8.652;2022-12-07T00:03:45;10.77;;;6.20;;
11535;SDS011;5824;49.336;8.652;2022-12-07T00:06:12;9.27;;;5.73;;
11535;SDS011;5824;49.336;8.652;2022-12-07T00:08:39;10.53;;;6.27;;
11535;SDS011;5824;49.336;8.652;2022-12-07T00:11:10;12.00;;;6.77;;
11535;SDS011;5824;49.336;8.652;2022-12-07T00:13:36;12.50;;;7.20;;
11535;SDS011;5824;49.336;8.652;2022-12-07T00:18:28;8.77;;;5.73;;
11535;SDS011;5824;49.336;8.652;2022-12-07T00:20:58;9.30;;;6.00;;
11535;SDS011;5824;49.336;8.652;2022-12-07T00:23:28;11.37;;;7.03;;
11535;SDS011;5824;49.336;8.652;2022-12-07T00:25:54;13.87;;;7.00;;
11535;SDS011;5824;49.336;8.652;2022-12-07T00:28:19;10.40;;;6.07;;
11535;SDS011;5824;49.336;8.652;2022-12-07T00:30:45;11.90;;;6.27;;
11535;SDS011;5824;49.336;8.652;2022-12-07T00:33:10;10.37;;;6.30;;
11535;SDS011;5824;49.336;8.652;2022-12-07T00:35:36;10.40;;;6.63;;
11535;SDS011;5824;49.336;8.652;2022-12-07T00:38:01;10.70;;;6.00;;
11535;SDS011;5824;49.336;8.652;2022-12-07T00:40:27;9.03;;;5.90;;
11535;SDS011;5824;49.336;8.652;2022-12-07T00:42:52;12.30;;;7.07;;
11535;SDS011;5824;49.336;8.652;2022-12-07T00:45:18;12.30;;;7.10;;
11535;SDS011;5824;49.336;8.652;2022-12-07T00:47:43;12.87;;;7.93;;
11535;SDS011;5824;49.336;8.652;2022-12-07T00:50:09;16.80;;;8.93;;
11535;SDS011;5824;49.336;8.652;2022-12-07T00:52:35;13.90;;;7.70;;
11535;SDS011;5824;49.336;8.652;2022-12-07T00:55:00;14.10;;;8.50;;
11535;SDS011;5824;49.336;8.652;2022-12-07T00:57:26;15.17;;;8.40;;
11535;SDS011;5824;49.336;8.652;2022-12-07T00:59:51;8.57;;;6.43;;
11535;SDS011;5824;49.336;8.652;2022-12-07T01:02:20;12.57;;;7.60;;
11535;SDS011;5824;49.336;8.652;2022-12-07T01:04:46;11.30;;;7.63;;
11535;SDS011;5824;49.336;8.652;2022-12-07T01:07:11;12.70;;;7.83;;
11535;SDS011;5824;49.336;8.652;2022-12-07T01:09:37;12.17;;;6.93;;
11535;SDS011;5824;49.336;8.652;2022-12-07T01:12:02;11.70;;;7.10;;
11535;SDS011;5824;49.336;8.652;2022-12-07T01:14:28;12.50;;;8.60;;
11535;SDS011;5824;49.336;8.652;2022-12-07T01:16:54;16.33;;;7.97;;
11535;SDS011;5824;49.336;8.652;2022-12-07T01:19:19;14.70;;;8.10;;
11535;SDS011;5824;49.336;8.652;2022-12-07T01:21:45;15.90;;;9.30;;
11535;SDS011;5824;49.336;8.652;2022-12-07T01:24:10;18.77;;;9.53;;
11535;SDS011;5824;49.336;8.652;2022-12-07T01:26:36;21.07;;;10.57;;
11535;SDS011;5824;49.336;8.652;2022-12-07T01:29:02;31.27;;;16.07;;
11535;SDS011;5824;49.336;8.652;2022-12-07T01:31:28;25.50;;;15.73;;
11535;SDS011;5824;49.336;8.652;2022-12-07T01:33:55;23.53;;;13.03;;
11535;SDS011;5824;49.336;8.652;2022-12-07T01:36:23;14.90;;;8.80;;
11535;SDS011;5824;49.336;8.652;2022-12-07T01:38:51;14.80;;;9.00;;
11535;SDS011;5824;49.336;8.652;2022-12-07T01:41:21;12.57;;;7.77;;
11535;SDS011;5824;49.336;8.652;2022-12-07T01:46:37;15.30;;;9.20;;
11535;SDS011;5824;49.336;8.652;2022-12-07T01:49:04;22.33;;;9.30;;
11535;SDS011;5824;49.336;8.652;2022-12-07T01:51:32;14.97;;;9.17;;
11535;SDS011;5824;49.336;8.652;2022-12-07T01:53:59;16.70;;;9.20;;
11535;SDS011;5824;49.336;8.652;2022-12-07T01:56:26;15.70;;;8.73;;
11535;SDS011;5824;49.336;8.652;2022-12-07T01:58:53;15.30;;;9.37;;
11535;SDS011;5824;49.336;8.652;2022-12-07T02:01:21;14.77;;;9.13;;
11535;SDS011;5824;49.336;8.652;2022-12-07T02:03:47;16.90;;;9.47;;
11535;SDS011;5824;49.336;8.652;2022-12-07T02:06:15;15.97;;;9.37;;
11535;SDS011;5824;49.336;8.652;2022-12-07T02:08:43;16.43;;;9.90;;
11535;SDS011;5824;49.336;8.652;2022-12-07T02:11:10;17.70;;;9.90;;
11535;SDS011;5824;49.336;8.652;2022-12-07T02:13:37;16.07;;;10.27;;
11535;SDS011;5824;49.336;8.652;2022-12-07T02:29:10;17.30;;;9.87;;
11535;SDS011;5824;49.336;8.652;2022-12-07T02:31:51;15.77;;;9.70;;
11535;SDS011;5824;49.336;8.652;2022-12-07T02:42:57;20.23;;;9.57;;
11535;SDS011;5824;49.336;8.652;2022-12-07T02:45:44;13.70;;;8.03;;
11535;SDS011;5824;49.336;8.652;2022-12-07T02:48:12;13.17;;;8.20;;
11535;SDS011;5824;49.336;8.652;2022-12-07T02:50:44;13.63;;;8.17;;
11535;SDS011;5824;49.336;8.652;2022-12-07T02:55:59;13.40;;;7.47;;
11535;SDS011;5824;49.336;8.652;2022-12-07T03:01:20;12.53;;;7.80;;
11535;SDS011;5824;49.336;8.652;2022-12-07T03:04:02;11.80;;;7.77;;
11535;SDS011;5824;49.336;8.652;2022-12-07T03:06:50;12.90;;;8.30;;
11535;SDS011;5824;49.336;8.652;2022-12-07T03:09:52;15.70;;;8.70;;
11535;SDS011;5824;49.336;8.652;2022-12-07T03:12:29;16.33;;;9.80;;
11535;SDS011;5824;49.336;8.652;2022-12-07T03:15:14;15.73;;;8.90;;
11535;SDS011;5824;49.336;8.652;2022-12-07T03:18:00;12.87;;;8.50;;
11535;SDS011;5824;49.336;8.652;2022-12-07T03:20:28;18.73;;;9.13;;
11535;SDS011;5824;49.336;8.652;2022-12-07T03:22:56;17.57;;;8.23;;
11535;SDS011;5824;49.336;8.652;2022-12-07T03:25:22;12.83;;;8.10;;
11535;SDS011;5824;49.336;8.652;2022-12-07T03:27:57;15.50;;;8.40;;
11535;SDS011;5824;49.336;8.652;2022-12-07T03:33:22;12.57;;;7.67;;
11535;SDS011;5824;49.336;8.652;2022-12-07T03:35:54;14.17;;;8.93;;
11535;SDS011;5824;49.336;8.652;2022-12-07T03:38:29;16.93;;;8.50;;
11535;SDS011;5824;49.336;8.652;2022-12-07T03:41:12;12.47;;;8.03;;
11535;SDS011;5824;49.336;8.652;2022-12-07T03:43:43;15.47;;;8.80;;
11535;SDS011;5824;49.336;8.652;2022-12-07T03:46:20;12.20;;;7.90;;
11535;SDS011;5824;49.336;8.652;2022-12-07T03:49:18;12.70;;;7.40;;
11535;SDS011;5824;49.336;8.652;2022-12-07T03:52:12;15.00;;;8.53;;
11535;SDS011;5824;49.336;8.652;2022-12-07T03:54:52;16.43;;;9.00;;
11535;SDS011;5824;49.336;8.652;2022-12-07T03:57:30;13.50;;;8.30;;
11535;SDS011;5824;49.336;8.652;2022-12-07T03:59:58;13.20;;;8.60;;
11535;SDS011;5824;49.336;8.652;2022-12-07T04:02:25;13.20;;;8.67;;
11535;SDS011;5824;49.336;8.652;2022-12-07T04:04:53;14.23;;;8.60;;
11535;SDS011;5824;49.336;8.652;2022-12-07T04:07:19;16.23;;;9.80;;
11535;SDS011;5824;49.336;8.652;2022-12-07T04:09:45;17.00;;;9.00;;
11535;SDS011;5824;49.336;8.652;2022-12-07T04:12:10;14.10;;;8.73;;
11535;SDS011;5824;49.336;8.652;2022-12-07T04:14:36;13.97;;;8.60;;
11535;SDS011;5824;49.336;8.652;2022-12-07T04:17:01;13.80;;;8.80;;
11535;SDS011;5824;49.336;8.652;2022-12-07T04:19:31;14.43;;;7.73;;
11535;SDS011;5824;49.336;8.652;2022-12-07T04:21:58;18.13;;;8.73;;
11535;SDS011;5824;49.336;8.652;2022-12-07T04:24:26;13.90;;;8.70;;
11535;SDS011;5824;49.336;8.652;2022-12-07T04:26:51;15.37;;;9.07;;
11535;SDS011;5824;49.336;8.652;2022-12-07T04:29:17;15.03;;;8.73;;
11535;SDS011;5824;49.336;8.652;2022-12-07T04:31:43;14.63;;;9.23;;
11535;SDS011;5824;49.336;8.652;2022-12-07T04:34:09;14.03;;;8.20;;
11535;SDS011;5824;49.336;8.652;2022-12-07T04:36:36;16.67;;;8.87;;
11535;SDS011;5824;49.336;8.652;2022-12-07T04:39:02;15.07;;;8.10;;
11535;SDS011;5824;49.336;8.652;2022-12-07T04:41:28;12.63;;;8.30;;
11535;SDS011;5824;49.336;8.652;2022-12-07T04:43:54;12.73;;;8.07;;
11535;SDS011;5824;49.336;8.652;2022-12-07T04:46:21;14.60;;;8.10;;
11535;SDS011;5824;49.336;8.652;2022-12-07T04:48:47;13.43;;;7.97;;
11535;SDS011;5824;49.336;8.652;2022-12-07T04:51:13;13.83;;;8.33;;
11535;SDS011;5824;49.336;8.652;2022-12-07T04:53:43;15.23;;;9.57;;
11535;SDS011;5824;49.336;8.652;2022-12-07T04:56:08;13.60;;;8.57;;
11535;SDS011;5824;49.336;8.652;2022-12-07T04:58:34;12.57;;;7.70;;
11535;SDS011;5824;49.336;8.652;2022-12-07T05:00:59;11.67;;;8.27;;
11535;SDS011;5824;49.336;8.652;2022-12-07T05:03:25;14.90;;;8.83;;
11535;SDS011;5824;49.336;8.652;2022-12-07T05:05:50;14.20;;;8.40;;
11535;SDS011;5824;49.336;8.652;2022-12-07T05:08:16;17.50;;;11.17;;
11535;SDS011;5824;49.336;8.652;2022-12-07T05:10:41;16.70;;;10.30;;
11535;SDS011;5824;49.336;8.652;2022-12-07T05:13:07;19.00;;;8.93;;
11535;SDS011;5824;49.336;8.652;2022-12-07T05:15:32;16.67;;;8.60;;
11535;SDS011;5824;49.336;8.652;2022-12-07T05:17:58;13.53;;;8.70;;
11535;SDS011;5824;49.336;8.652;2022-12-07T05:20:24;13.57;;;8.83;;
11535;SDS011;5824;49.336;8.652;2022-12-07T05:22:49;14.90;;;8.83;;
11535;SDS011;5824;49.336;8.652;2022-12-07T05:25:15;14.73;;;9.27;;
11535;SDS011;5824;49.336;8.652;2022-12-07T05:27:40;13.83;;;9.13;;
11535;SDS011;5824;49.336;8.652;2022-12-07T05:30:06;15.63;;;9.13;;
11535;SDS011;5824;49.336;8.652;2022-12-07T05:32:32;13.23;;;8.47;;
11535;SDS011;5824;49.336;8.652;2022-12-07T05:34:58;12.20;;;8.13;;
11535;SDS011;5824;49.336;8.652;2022-12-07T05:37:23;19.40;;;9.93;;
11535;SDS011;5824;49.336;8.652;2022-12-07T05:39:49;15.57;;;9.40;;
11535;SDS011;5824;49.336;8.652;2022-12-07T05:42:14;16.37;;;10.73;;
11535;SDS011;5824;49.336;8.652;2022-12-07T05:44:42;16.90;;;10.80;;
11535;SDS011;5824;49.336;8.652;2022-12-07T05:47:09;16.20;;;10.20;;
11535;SDS011;5824;49.336;8.652;2022-12-07T05:49:35;14.17;;;9.80;;
11535;SDS011;5824;49.336;8.652;2022-12-07T05:52:01;14.50;;;9.53;;
11535;SDS011;5824;49.336;8.652;2022-12-07T05:54:27;17.43;;;10.00;;
11535;SDS011;5824;49.336;8.652;2022-12-07T05:56:53;13.37;;;9.20;;
11535;SDS011;5824;49.336;8.652;2022-12-07T05:59:19;22.30;;;10.20;;
11535;SDS011;5824;49.336;8.652;2022-12-07T06:01:57;17.70;;;11.20;;
11535;SDS011;5824;49.336;8.652;2022-12-07T06:04:32;18.60;;;11.77;;
11535;SDS011;5824;49.336;8.652;2022-12-07T06:07:01;22.73;;;13.73;;
11535;SDS011;5824;49.336;8.652;2022-12-07T06:09:27;24.20;;;13.20;;
11535;SDS011;5824;49.336;8.652;2022-12-07T06:11:53;28.67;;;14.87;;
11535;SDS011;5824;49.336;8.652;2022-12-07T06:14:38;14.73;;;9.40;;
11535;SDS011;5824;49.336;8.652;2022-12-07T06:17:04;16.60;;;9.60;;
11535;SDS011;5824;49.336;8.652;2022-12-07T06:19:30;20.27;;;11.33;;
11535;SDS011;5824;49.336;8.652;2022-12-07T06:21:55;22.30;;;10.40;;
11535;SDS011;5824;49.336;8.652;2022-12-07T06:24:22;14.83;;;9.50;;
11535;SDS011;5824;49.336;8.652;2022-12-07T06:26:48;15.03;;;9.80;;
11535;SDS011;5824;49.336;8.652;2022-12-07T06:29:13;15.60;;;9.67;;
11535;SDS011;5824;49.336;8.652;2022-12-07T06:31:40;16.63;;;10.57;;
11535;SDS011;5824;49.336;8.652;2022-12-07T06:34:07;16.97;;;10.57;;
11535;SDS011;5824;49.336;8.652;2022-12-07T06:36:35;18.10;;;10.30;;
11535;SDS011;5824;49.336;8.652;2022-12-07T06:39:01;18.80;;;11.00;;
11535;SDS011;5824;49.336;8.652;2022-12-07T06:41:27;14.40;;;10.53;;
11535;SDS011;5824;49.336;8.652;2022-12-07T06:43:53;16.07;;;10.40;;
11535;SDS011;5824;49.336;8.652;2022-12-07T06:46:18;15.87;;;9.70;;
11535;SDS011;5824;49.336;8.652;2022-12-07T06:48:44;18.03;;;9.93;;
11535;SDS011;5824;49.336;8.652;2022-12-07T06:51:10;16.43;;;10.50;;
11535;SDS011;5824;49.336;8.652;2022-12-07T06:53:35;16.10;;;9.87;;
11535;SDS011;5824;49.336;8.652;2022-12-07T06:56:03;15.77;;;9.73;;
11535;SDS011;5824;49.336;8.652;2022-12-07T06:58:29;18.47;;;11.07;;
11535;SDS011;5824;49.336;8.652;2022-12-07T07:00:55;21.57;;;10.97;;
11535;SDS011;5824;49.336;8.652;2022-12-07T07:03:20;18.67;;;11.47;;
11535;SDS011;5824;49.336;8.652;2022-12-07T07:05:46;17.97;;;10.83;;
11535;SDS011;5824;49.336;8.652;2022-12-07T07:08:12;16.93;;;10.77;;
11535;SDS011;5824;49.336;8.652;2022-12-07T07:10:37;19.40;;;11.20;;
11535;SDS011;5824;49.336;8.652;2022-12-07T07:13:03;16.07;;;10.67;;
11535;SDS011;5824;49.336;8.652;2022-12-07T07:15:29;21.73;;;11.30;;
11535;SDS011;5824;49.336;8.652;2022-12-07T07:17:56;18.03;;;10.23;;
11535;SDS011;5824;49.336;8.652;2022-12-07T07:20:22;18.77;;;11.33;;
11535;SDS011;5824;49.336;8.652;2022-12-07T07:22:48;17.20;;;11.23;;
11535;SDS011;5824;49.336;8.652;2022-12-07T07:25:14;20.10;;;11.70;;
